createdAt,value
2018-07-22T00:00:11.449Z,99.90
2018-07-22T00:02:41.850Z,99.90
2018-07-22T00:05:11.948Z,99.90
2018-07-22T00:07:42.131Z,99.90
2018-07-22T00:10:25.305Z,99.90
2018-07-22T00:12:55.626Z,99.90
2018-07-22T00:15:26.270Z,99.90
2018-07-22T00:17:56.493Z,99.90
2018-07-22T00:20:26.651Z,99.90
2018-07-22T00:22:56.924Z,99.90
2018-07-22T00:25:27.094Z,99.90
2018-07-22T00:27:57.188Z,99.90
2018-07-22T00:30:27.414Z,99.90
2018-07-22T00:32:57.512Z,99.90
2018-07-22T00:37:57.873Z,99.90
2018-07-22T00:40:28.008Z,99.90
2018-07-22T00:42:58.159Z,99.90
2018-07-22T00:45:28.288Z,99.90
2018-07-22T00:47:58.419Z,99.90
2018-07-22T00:50:28.562Z,99.90
2018-07-22T00:52:58.648Z,99.90
2018-07-22T00:55:28.804Z,99.90
2018-07-22T00:57:58.951Z,99.90
2018-07-22T01:00:29.725Z,99.90
2018-07-22T01:03:00.116Z,99.90
2018-07-22T01:05:30.250Z,99.90
2018-07-22T01:08:00.348Z,99.90
2018-07-22T01:10:30.493Z,99.90
2018-07-22T01:13:00.651Z,99.90
2018-07-22T01:15:30.843Z,99.90
2018-07-22T01:18:00.953Z,99.90
2018-07-22T01:20:31.237Z,99.90
2018-07-22T01:23:01.417Z,99.90
2018-07-22T01:25:31.680Z,99.90
2018-07-22T01:28:01.840Z,99.90
2018-07-22T01:30:32.070Z,99.90
2018-07-22T01:33:02.945Z,99.90
2018-07-22T01:35:33.035Z,99.90
2018-07-22T01:38:03.263Z,99.90
2018-07-22T01:40:33.321Z,99.90
2018-07-22T01:43:03.535Z,99.90
2018-07-22T01:45:33.571Z,99.90
2018-07-22T01:48:03.650Z,99.90
2018-07-22T01:50:33.760Z,99.90
2018-07-22T01:53:03.859Z,99.90
2018-07-22T01:55:33.929Z,99.90
2018-07-22T01:58:04.243Z,99.90
2018-07-22T02:00:34.365Z,99.90
2018-07-22T02:03:04.557Z,99.90
2018-07-22T02:05:34.631Z,99.90
2018-07-22T02:10:34.635Z,99.90
2018-07-22T02:13:05.215Z,99.90
2018-07-22T02:15:35.893Z,99.90
2018-07-22T02:18:06.664Z,99.90
2018-07-22T02:20:36.826Z,99.90
2018-07-22T02:23:06.927Z,99.90
2018-07-22T02:25:37.044Z,99.90
2018-07-22T02:28:07.171Z,99.90
2018-07-22T02:30:37.262Z,99.90
2018-07-22T02:33:07.686Z,99.90
2018-07-22T02:35:37.800Z,99.90
2018-07-22T02:38:07.922Z,99.90
2018-07-22T02:40:38.037Z,99.90
2018-07-22T02:43:08.240Z,99.90
2018-07-22T02:45:38.360Z,99.90
2018-07-22T02:48:08.494Z,99.90
2018-07-22T02:50:38.682Z,99.90
2018-07-22T02:53:08.902Z,99.90
2018-07-22T02:55:38.942Z,99.90
2018-07-22T02:58:09.067Z,99.90
2018-07-22T03:00:39.143Z,99.90
2018-07-22T03:03:09.262Z,99.90
2018-07-22T03:05:39.284Z,99.90
2018-07-22T03:08:09.406Z,99.90
2018-07-22T03:10:39.431Z,99.90
2018-07-22T03:13:09.539Z,99.90
2018-07-22T03:15:39.946Z,99.90
2018-07-22T03:18:10.660Z,99.90
2018-07-22T03:20:40.668Z,99.90
2018-07-22T03:23:10.929Z,99.90
2018-07-22T03:25:41.157Z,99.90
2018-07-22T03:28:11.274Z,99.90
2018-07-22T03:30:41.391Z,99.90
2018-07-22T03:33:11.521Z,99.90
2018-07-22T03:35:41.650Z,99.90
2018-07-22T03:38:11.837Z,99.90
2018-07-22T03:40:41.905Z,99.90
2018-07-22T03:43:12.009Z,99.90
2018-07-22T03:45:42.195Z,99.90
2018-07-22T03:48:12.815Z,99.90
2018-07-22T03:50:43.189Z,99.90
2018-07-22T03:53:13.260Z,99.90
2018-07-22T03:55:43.418Z,99.90
2018-07-22T03:58:13.552Z,99.90
2018-07-22T04:00:43.622Z,99.90
2018-07-22T04:03:13.784Z,99.90
2018-07-22T04:05:43.854Z,99.90
2018-07-22T04:08:14.072Z,99.90
2018-07-22T04:10:44.785Z,99.90
2018-07-22T04:13:14.854Z,99.90
2018-07-22T04:15:44.970Z,99.90
2018-07-22T04:18:15.124Z,99.90
2018-07-22T04:20:45.278Z,99.90
2018-07-22T04:23:15.546Z,99.90
2018-07-22T04:25:46.220Z,99.90
2018-07-22T04:28:16.424Z,99.90
2018-07-22T04:30:46.691Z,99.90
2018-07-22T04:33:16.880Z,99.90
2018-07-22T04:35:47.060Z,99.90
2018-07-22T04:38:17.194Z,99.90
2018-07-22T04:40:47.288Z,99.90
2018-07-22T04:43:17.482Z,99.90
2018-07-22T04:45:47.498Z,99.90
2018-07-22T04:48:17.684Z,99.90
2018-07-22T04:50:47.774Z,99.90
2018-07-22T04:53:18.476Z,99.90
2018-07-22T04:55:48.560Z,99.90
2018-07-22T04:58:19.300Z,99.90
2018-07-22T05:00:49.456Z,99.90
2018-07-22T05:03:19.504Z,99.90
2018-07-22T05:05:49.573Z,99.90
2018-07-22T05:08:19.669Z,99.90
2018-07-22T05:10:50.339Z,99.90
2018-07-22T05:13:20.434Z,99.90
2018-07-22T05:15:50.613Z,99.90
2018-07-22T05:18:20.668Z,99.90
2018-07-22T05:20:50.804Z,99.90
2018-07-22T05:23:20.909Z,99.90
2018-07-22T05:25:50.963Z,99.90
2018-07-22T05:28:21.787Z,99.90
2018-07-22T05:30:51.975Z,99.90
2018-07-22T05:33:22.043Z,99.90
2018-07-22T05:35:52.158Z,99.90
2018-07-22T05:38:22.286Z,99.90
2018-07-22T05:40:52.500Z,99.90
2018-07-22T05:43:22.711Z,99.90
2018-07-22T05:45:52.816Z,99.80
2018-07-22T05:48:22.931Z,99.90
2018-07-22T05:50:53.090Z,99.90
2018-07-22T05:53:23.209Z,99.90
2018-07-22T05:55:53.525Z,99.90
2018-07-22T05:58:23.779Z,99.90
2018-07-22T06:00:53.929Z,99.90
2018-07-22T06:03:24.372Z,99.90
2018-07-22T06:05:55.086Z,99.90
2018-07-22T06:08:25.207Z,99.90
2018-07-22T06:10:55.269Z,99.90
2018-07-22T06:13:25.575Z,99.90
2018-07-22T06:15:55.772Z,99.90
2018-07-22T06:20:55.607Z,99.90
2018-07-22T06:23:25.865Z,99.90
2018-07-22T06:25:56.004Z,99.90
2018-07-22T06:28:26.089Z,99.90
2018-07-22T06:30:56.221Z,99.90
2018-07-22T06:33:26.395Z,99.90
2018-07-22T06:35:57.129Z,99.90
2018-07-22T06:38:27.415Z,99.90
2018-07-22T06:40:57.523Z,99.90
2018-07-22T06:43:27.760Z,99.90
2018-07-22T06:45:57.941Z,99.90
2018-07-22T06:48:28.107Z,99.90
2018-07-22T06:50:58.401Z,99.90
2018-07-22T06:53:28.528Z,99.90
2018-07-22T06:55:58.679Z,99.90
2018-07-22T06:58:28.964Z,99.90
2018-07-22T07:00:59.196Z,99.90
2018-07-22T07:03:30.327Z,99.90
2018-07-22T07:06:00.481Z,99.90
2018-07-22T07:08:30.614Z,99.90
2018-07-22T07:11:01.102Z,99.90
2018-07-22T07:13:31.166Z,99.90
2018-07-22T07:16:01.285Z,99.90
2018-07-22T07:18:31.365Z,99.90
2018-07-22T07:21:07.941Z,99.90
2018-07-22T07:23:38.230Z,99.90
2018-07-22T07:26:08.574Z,99.90
2018-07-22T07:28:38.948Z,99.90
2018-07-22T07:31:09.059Z,99.90
2018-07-22T07:33:39.339Z,99.90
2018-07-22T07:36:09.407Z,99.90
2018-07-22T07:38:39.659Z,99.90
2018-07-22T07:41:10.395Z,99.90
2018-07-22T07:43:40.580Z,99.90
2018-07-22T07:46:10.749Z,99.90
2018-07-22T07:48:40.920Z,99.90
2018-07-22T07:51:11.053Z,99.90
2018-07-22T07:53:41.136Z,99.90
2018-07-22T07:56:11.324Z,99.90
2018-07-22T07:58:41.553Z,99.90
2018-07-22T08:01:11.922Z,99.90
2018-07-22T08:03:42.039Z,99.90
2018-07-22T08:06:12.541Z,99.90
2018-07-22T08:08:42.710Z,99.90
2018-07-22T08:11:12.882Z,99.90
2018-07-22T08:13:43.054Z,99.90
2018-07-22T08:16:13.256Z,99.90
2018-07-22T08:18:43.638Z,99.90
2018-07-22T08:21:14.490Z,99.90
2018-07-22T08:23:44.641Z,99.90
2018-07-22T08:26:17.922Z,99.90
2018-07-22T08:29:35.117Z,99.90
2018-07-22T08:32:06.308Z,99.90
2018-07-22T08:34:37.219Z,99.90
2018-07-22T08:37:08.804Z,99.90
2018-07-22T08:39:38.863Z,99.90
2018-07-22T08:42:09.070Z,99.90
2018-07-22T08:44:39.596Z,99.90
2018-07-22T08:47:16.472Z,99.90
2018-07-22T08:49:46.730Z,99.90
2018-07-22T08:52:16.906Z,99.90
2018-07-22T08:54:47.483Z,99.90
2018-07-22T08:57:17.627Z,99.90
2018-07-22T08:59:48.068Z,99.90
2018-07-22T09:04:47.905Z,99.90
2018-07-22T09:07:17.982Z,99.90
2018-07-22T09:09:48.649Z,99.90
2018-07-22T09:12:18.890Z,99.90
2018-07-22T09:14:49.012Z,99.90
2018-07-22T09:17:19.594Z,99.90
2018-07-22T09:19:50.578Z,99.90
2018-07-22T09:22:20.806Z,99.90
2018-07-22T09:24:50.934Z,99.90
2018-07-22T09:27:21.126Z,99.90
2018-07-22T09:29:51.352Z,99.90
2018-07-22T09:32:21.538Z,99.90
2018-07-22T09:34:51.708Z,99.90
2018-07-22T09:37:21.939Z,99.90
2018-07-22T09:39:52.060Z,99.90
2018-07-22T09:42:22.180Z,99.90
2018-07-22T09:44:52.384Z,99.90
2018-07-22T09:47:22.476Z,99.90
2018-07-22T09:50:04.313Z,99.90
2018-07-22T09:52:34.520Z,99.90
2018-07-22T09:55:04.915Z,99.90
2018-07-22T09:57:35.089Z,99.90
2018-07-22T10:00:06.494Z,99.90
2018-07-22T10:02:37.647Z,99.90
2018-07-22T10:05:08.112Z,99.90
2018-07-22T10:07:38.410Z,99.90
2018-07-22T10:10:08.560Z,99.90
2018-07-22T10:12:38.761Z,99.90
2018-07-22T10:15:09.942Z,99.90
2018-07-22T10:17:40.543Z,99.90
2018-07-22T10:20:10.970Z,99.90
2018-07-22T10:22:41.197Z,99.90
2018-07-22T10:25:11.451Z,99.90
2018-07-22T10:27:42.040Z,99.90
2018-07-22T10:30:12.664Z,99.90
2018-07-22T10:32:42.790Z,99.90
2018-07-22T10:35:13.018Z,99.90
2018-07-22T10:37:43.337Z,99.90
2018-07-22T10:40:14.173Z,99.90
2018-07-22T10:42:44.499Z,99.90
2018-07-22T10:45:15.287Z,99.90
2018-07-22T10:47:45.529Z,99.90
2018-07-22T10:50:17.172Z,99.90
2018-07-22T10:52:47.335Z,99.90
2018-07-22T10:55:17.525Z,99.90
2018-07-22T10:57:47.612Z,99.90
2018-07-22T11:00:17.892Z,99.90
2018-07-22T11:02:48.040Z,99.90
2018-07-22T11:05:18.267Z,99.90
2018-07-22T11:07:48.793Z,99.90
2018-07-22T11:10:19.593Z,99.90
2018-07-22T11:12:49.784Z,99.90
2018-07-22T11:15:21.885Z,99.30
2018-07-22T11:17:51.972Z,99.10
2018-07-22T11:20:22.211Z,98.40
2018-07-22T11:22:52.541Z,98.40
2018-07-22T11:25:22.729Z,99.10
2018-07-22T11:27:52.837Z,99.50
2018-07-22T11:30:23.099Z,98.70
2018-07-22T11:32:53.749Z,98.80
2018-07-22T11:35:24.416Z,97.80
2018-07-22T11:37:54.689Z,98.60
2018-07-22T11:40:24.882Z,98.00
2018-07-22T11:42:55.029Z,97.90
2018-07-22T11:45:25.240Z,98.30
2018-07-22T11:47:55.334Z,98.10
2018-07-22T11:50:25.502Z,98.30
2018-07-22T11:52:55.658Z,98.30
2018-07-22T11:55:26.634Z,97.90
2018-07-22T11:57:56.874Z,98.40
2018-07-22T12:00:26.974Z,98.20
2018-07-22T12:02:57.079Z,98.20
2018-07-22T12:05:27.214Z,98.00
2018-07-22T12:07:57.466Z,96.50
2018-07-22T12:10:27.585Z,97.30
2018-07-22T12:12:57.726Z,97.40
2018-07-22T12:15:27.976Z,97.80
2018-07-22T12:17:58.030Z,97.60
2018-07-22T12:20:28.420Z,97.90
2018-07-22T12:22:58.749Z,97.50
2018-07-22T12:25:28.964Z,97.00
2018-07-22T12:30:28.800Z,96.70
2018-07-22T12:32:58.911Z,96.20
2018-07-22T12:35:29.030Z,96.10
2018-07-22T12:40:29.192Z,94.50
2018-07-22T12:42:59.279Z,94.00
2018-07-22T12:45:29.453Z,94.30
2018-07-22T12:48:00.288Z,93.50
2018-07-22T12:50:30.667Z,93.80
2018-07-22T12:53:00.966Z,93.70
2018-07-22T12:55:31.111Z,93.20
2018-07-22T12:58:01.236Z,91.60
2018-07-22T13:00:31.417Z,92.00
2018-07-22T13:03:01.570Z,92.20
2018-07-22T13:05:31.772Z,91.90
2018-07-22T13:08:01.825Z,90.90
2018-07-22T13:10:32.012Z,90.00
2018-07-22T13:13:02.345Z,89.90
2018-07-22T13:15:32.707Z,87.30
2018-07-22T13:18:02.845Z,88.30
2018-07-22T13:20:32.995Z,88.50
2018-07-22T13:23:03.208Z,87.00
2018-07-22T13:25:33.862Z,87.50
2018-07-22T13:28:04.673Z,86.10
2018-07-22T13:30:34.896Z,85.30
2018-07-22T13:33:05.264Z,85.00
2018-07-22T13:35:35.480Z,85.20
2018-07-22T13:38:05.657Z,85.00
2018-07-22T13:43:05.950Z,84.20
2018-07-22T13:45:36.747Z,84.20
2018-07-22T13:48:07.025Z,83.90
2018-07-22T13:50:37.290Z,83.00
2018-07-22T13:53:07.521Z,82.20
2018-07-22T13:55:37.759Z,81.20
2018-07-22T13:58:07.855Z,81.30
2018-07-22T14:00:38.437Z,80.90
2018-07-22T14:03:08.700Z,80.80
2018-07-22T14:05:38.791Z,79.20
2018-07-22T14:08:09.374Z,79.10
2018-07-22T14:10:39.569Z,79.70
2018-07-22T14:13:09.757Z,78.60
2018-07-22T14:15:39.973Z,78.60
2018-07-22T14:18:10.061Z,78.00
2018-07-22T14:20:40.373Z,78.10
2018-07-22T14:23:10.535Z,77.80
2018-07-22T14:25:40.619Z,77.90
2018-07-22T14:28:10.936Z,77.30
2018-07-22T14:30:41.153Z,77.00
2018-07-22T14:33:11.820Z,77.00
2018-07-22T14:35:42.320Z,77.90
2018-07-22T14:38:12.645Z,77.70
2018-07-22T14:40:42.887Z,77.90
2018-07-22T14:43:12.946Z,78.10
2018-07-22T14:45:43.421Z,77.70
2018-07-22T14:48:13.502Z,77.50
2018-07-22T14:50:44.323Z,76.60
2018-07-22T14:53:14.560Z,76.30
2018-07-22T14:55:44.850Z,76.50
2018-07-22T14:58:15.076Z,76.70
2018-07-22T15:00:45.262Z,78.10
2018-07-22T15:03:15.611Z,76.20
2018-07-22T15:05:45.878Z,76.10
2018-07-22T15:08:16.049Z,75.80
2018-07-22T15:10:46.488Z,75.70
2018-07-22T15:13:16.657Z,75.60
2018-07-22T15:15:46.800Z,74.70
2018-07-22T15:18:16.983Z,74.70
2018-07-22T15:20:47.618Z,72.70
2018-07-22T15:23:17.725Z,71.10
2018-07-22T15:25:47.938Z,72.50
2018-07-22T15:28:18.121Z,72.40
2018-07-22T15:30:48.333Z,72.40
2018-07-22T15:33:18.555Z,72.50
2018-07-22T15:35:48.766Z,72.50
2018-07-22T15:38:19.317Z,72.50
2018-07-22T15:40:50.164Z,72.50
2018-07-22T15:43:21.100Z,72.60
2018-07-22T15:45:51.209Z,72.40
2018-07-22T15:48:21.440Z,71.90
2018-07-22T15:50:51.725Z,71.90
2018-07-22T15:53:22.612Z,72.20
2018-07-22T15:55:52.925Z,71.40
2018-07-22T15:58:23.111Z,71.20
2018-07-22T16:00:53.340Z,71.70
2018-07-22T16:05:53.236Z,71.20
2018-07-22T16:08:23.464Z,71.90
2018-07-22T16:10:54.281Z,71.70
2018-07-22T16:13:24.488Z,71.80
2018-07-22T16:15:55.288Z,72.20
2018-07-22T16:18:25.413Z,72.40
2018-07-22T16:20:55.529Z,72.50
2018-07-22T16:23:26.037Z,72.60
2018-07-22T16:25:56.138Z,72.70
2018-07-22T16:28:26.323Z,72.90
2018-07-22T16:30:56.529Z,73.50
2018-07-22T16:33:26.703Z,73.50
2018-07-22T16:35:56.935Z,73.60
2018-07-22T16:38:27.057Z,73.90
2018-07-22T16:40:57.125Z,73.70
2018-07-22T16:43:27.296Z,74.10
2018-07-22T16:45:57.383Z,74.40
2018-07-22T16:48:28.396Z,74.50
2018-07-22T16:50:58.530Z,74.70
2018-07-22T16:53:29.146Z,75.00
2018-07-22T16:55:59.398Z,75.20
2018-07-22T16:58:30.084Z,75.30
2018-07-22T17:01:00.220Z,75.40
2018-07-22T17:03:30.358Z,75.80
2018-07-22T17:06:00.448Z,76.00
2018-07-22T17:08:31.624Z,76.10
2018-07-22T17:11:01.810Z,76.10
2018-07-22T17:13:32.017Z,76.10
2018-07-22T17:16:02.326Z,76.10
2018-07-22T17:18:33.268Z,76.30
2018-07-22T17:21:04.488Z,76.20
2018-07-22T17:23:35.588Z,76.50
2018-07-22T17:26:06.187Z,76.70
2018-07-22T17:28:36.373Z,76.60
2018-07-22T17:31:07.542Z,76.40
2018-07-22T17:33:37.797Z,76.30
2018-07-22T17:36:07.946Z,76.30
2018-07-22T17:38:38.147Z,76.40
2018-07-22T17:41:08.580Z,76.40
2018-07-22T17:46:08.553Z,76.60
2018-07-22T17:48:38.727Z,76.80
2018-07-22T17:51:09.031Z,77.00
2018-07-22T17:53:39.071Z,77.30
2018-07-22T17:56:09.171Z,77.50
2018-07-22T17:58:39.324Z,77.60
2018-07-22T18:01:09.610Z,77.90
2018-07-22T18:03:39.761Z,78.10
2018-07-22T18:06:09.989Z,78.30
2018-07-22T18:08:40.238Z,78.40
2018-07-22T18:11:10.348Z,78.40
2018-07-22T18:13:40.448Z,78.40
2018-07-22T18:16:10.620Z,78.50
2018-07-22T18:18:40.752Z,78.60
2018-07-22T18:21:11.038Z,78.60
2018-07-22T18:23:41.178Z,78.70
2018-07-22T18:26:11.426Z,78.70
2018-07-22T18:28:41.591Z,78.70
2018-07-22T18:31:11.717Z,78.70
2018-07-22T18:33:41.945Z,78.60
2018-07-22T18:36:12.184Z,78.60
2018-07-22T18:38:42.370Z,78.70
2018-07-22T18:41:12.852Z,78.60
2018-07-22T18:43:43.019Z,78.70
2018-07-22T18:46:13.300Z,79.00
2018-07-22T18:48:43.574Z,79.30
2018-07-22T18:51:13.771Z,79.50
2018-07-22T18:53:44.435Z,79.70
2018-07-22T18:56:15.128Z,79.70
2018-07-22T18:58:45.255Z,79.60
2018-07-22T19:01:15.329Z,79.60
2018-07-22T19:03:45.895Z,79.60
2018-07-22T19:06:16.566Z,79.60
2018-07-22T19:08:47.227Z,79.60
2018-07-22T19:11:17.447Z,79.70
2018-07-22T19:13:48.003Z,79.60
2018-07-22T19:16:18.347Z,79.50
2018-07-22T19:18:50.115Z,79.50
2018-07-22T19:21:21.194Z,79.50
2018-07-22T19:23:51.363Z,79.80
2018-07-22T19:26:21.509Z,79.90
2018-07-22T19:28:51.723Z,79.90
2018-07-22T19:33:51.533Z,80.00
2018-07-22T19:36:21.745Z,80.20
2018-07-22T19:38:52.628Z,80.10
2018-07-22T19:41:22.755Z,80.10
2018-07-22T19:43:52.941Z,80.00
2018-07-22T19:46:23.211Z,80.00
2018-07-22T19:48:53.351Z,80.20
2018-07-22T19:51:23.479Z,80.50
2018-07-22T19:53:53.723Z,80.70
2018-07-22T19:56:24.871Z,81.00
2018-07-22T19:58:55.049Z,81.10
2018-07-22T20:01:25.133Z,81.20
2018-07-22T20:03:55.252Z,81.40
2018-07-22T20:06:25.403Z,82.10
2018-07-22T20:08:55.637Z,83.60
2018-07-22T20:11:25.749Z,84.80
2018-07-22T20:13:55.972Z,85.50
2018-07-22T20:16:26.051Z,84.80
2018-07-22T20:18:56.226Z,84.80
2018-07-22T20:21:27.447Z,85.30
2018-07-22T20:23:58.302Z,84.70
2018-07-22T20:26:29.025Z,84.50
2018-07-22T20:28:59.166Z,84.50
2018-07-22T20:31:29.408Z,85.40
2018-07-22T20:33:59.797Z,85.90
2018-07-22T20:36:30.131Z,87.00
2018-07-22T20:39:00.529Z,87.20
2018-07-22T20:41:31.121Z,87.20
2018-07-22T20:44:01.555Z,86.60
2018-07-22T20:46:32.461Z,86.10
2018-07-22T20:49:02.609Z,86.00
2018-07-22T20:51:32.718Z,86.20
2018-07-22T20:54:03.510Z,86.90
2018-07-22T20:56:34.247Z,87.20
2018-07-22T20:59:04.406Z,87.50
2018-07-22T21:01:34.597Z,87.50
2018-07-22T21:04:04.811Z,87.60
2018-07-22T21:06:35.216Z,87.50
2018-07-22T21:09:07.607Z,87.20
2018-07-22T21:11:54.590Z,87.70
2018-07-22T21:14:27.142Z,87.20
2018-07-22T21:16:57.289Z,86.60
2018-07-22T21:19:27.436Z,87.10
2018-07-22T21:21:57.647Z,87.00
2018-07-22T21:24:27.852Z,87.60
2018-07-22T21:26:58.092Z,88.10
2018-07-22T21:29:28.267Z,87.70
2018-07-22T21:31:58.425Z,87.20
2018-07-22T21:36:58.447Z,87.50
2018-07-22T21:39:28.529Z,87.20
2018-07-22T21:41:59.557Z,87.30
2018-07-22T21:44:29.725Z,87.70
2018-07-22T21:46:59.867Z,87.90
2018-07-22T21:49:29.966Z,87.60
2018-07-22T21:52:00.077Z,87.30
2018-07-22T21:54:36.874Z,87.00
2018-07-22T21:57:07.002Z,86.90
2018-07-22T21:59:37.216Z,87.00
2018-07-22T22:02:07.461Z,87.90
2018-07-22T22:04:37.632Z,88.70
2018-07-22T22:07:07.968Z,89.50
2018-07-22T22:09:38.112Z,90.00
2018-07-22T22:12:08.544Z,90.20
2018-07-22T22:14:41.002Z,90.20
2018-07-22T22:17:11.805Z,90.40
2018-07-22T22:19:42.122Z,90.40
2018-07-22T22:22:12.304Z,90.40
2018-07-22T22:24:43.164Z,90.40
2018-07-22T22:27:13.308Z,90.10
2018-07-22T22:29:43.373Z,90.00
2018-07-22T22:32:13.583Z,89.70
2018-07-22T22:34:43.688Z,89.60
2018-07-22T22:37:13.785Z,89.60
2018-07-22T22:39:44.338Z,90.00
2018-07-22T22:42:14.560Z,90.00
2018-07-22T22:44:44.614Z,90.10
2018-07-22T22:47:14.741Z,90.40
2018-07-22T22:49:44.866Z,90.50
2018-07-22T22:52:15.348Z,90.30
2018-07-22T22:54:46.435Z,90.50
2018-07-22T22:57:17.138Z,90.40
2018-07-22T22:59:47.314Z,90.20
2018-07-22T23:02:17.561Z,90.40
2018-07-22T23:04:47.640Z,90.80
2018-07-22T23:07:17.772Z,91.00
2018-07-22T23:09:47.839Z,90.90
2018-07-22T23:12:17.883Z,91.00
2018-07-22T23:14:47.998Z,90.90
2018-07-22T23:17:18.196Z,90.90
2018-07-22T23:19:48.538Z,90.60
2018-07-22T23:22:18.635Z,90.50
2018-07-22T23:24:48.743Z,90.60
2018-07-22T23:27:18.767Z,90.50
2018-07-22T23:32:18.781Z,90.20
2018-07-22T23:34:48.873Z,90.10
2018-07-22T23:37:19.001Z,90.00
2018-07-22T23:39:49.202Z,90.00
2018-07-22T23:42:19.411Z,90.10
2018-07-22T23:44:49.617Z,90.10
2018-07-22T23:47:19.795Z,90.10
2018-07-22T23:49:49.907Z,90.10
2018-07-22T23:52:20.033Z,90.10
2018-07-22T23:54:50.070Z,90.20
2018-07-22T23:57:20.298Z,90.20
2018-07-22T23:59:50.469Z,90.30
